Time;durP1;ratioP1;P1;durP2;ratioP2;P2;SDS_P1;SDS_P2;PMS_P1;PMS_P2;Temp;Humidity;BMP_temperature;BMP_pressure;BME280_temperature;BME280_humidity;BME280_pressure;Samples;Min_cycle;Max_cycle;Signal;HPM_P1;HPM_P2
2021/07/25 00:01:42;;;;;;;1.08;1.08;;;23.50;76.70;;;;;;4939536;29;20488;-80
2021/07/25 00:04:08;;;;;;;1.63;1.52;;;23.30;77.00;;;;;;4956196;29;20039;-88
2021/07/25 00:06:33;;;;;;;2.63;2.13;;;23.00;78.90;;;;;;4939274;29;20039;-79
2021/07/25 00:08:59;;;;;;;1.10;1.05;;;23.20;79.70;;;;;;4956391;29;20106;-84
2021/07/25 00:11:26;;;;;;;1.42;1.00;;;23.20;80.10;;;;;;4939913;29;20043;-83
2021/07/25 00:13:54;;;;;;;0.90;0.90;;;23.10;81.10;;;;;;4938900;29;20039;-83
2021/07/25 00:16:19;;;;;;;2.60;2.17;;;23.00;81.50;;;;;;4939033;29;20469;-82
2021/07/25 00:18:45;;;;;;;3.65;2.08;;;23.10;82.00;;;;;;4938774;29;20559;-88
2021/07/25 00:21:11;;;;;;;0.93;0.93;;;23.10;82.20;;;;;;4956589;29;20045;-82
2021/07/25 00:23:42;;;;;;;3.25;1.75;;;23.10;82.40;;;;;;4955899;29;20045;-85
2021/07/25 00:26:12;;;;;;;0.90;0.90;;;23.10;82.60;;;;;;4938922;29;20439;-81
2021/07/25 00:28:38;;;;;;;1.55;1.45;;;22.80;82.60;;;;;;4955764;29;20466;-87
2021/07/25 00:31:05;;;;;;;1.42;1.33;;;22.80;83.70;;;;;;4956412;29;20082;-86
2021/07/25 00:33:32;;;;;;;1.30;1.20;;;22.70;83.90;;;;;;4955530;29;20369;-85
2021/07/25 00:36:02;;;;;;;1.33;1.23;;;22.70;84.70;;;;;;4956034;29;20110;-89
2021/07/25 00:38:28;;;;;;;1.25;1.08;;;22.40;84.70;;;;;;4955971;29;20385;-87
2021/07/25 00:41:09;;;;;;;1.42;1.33;;;22.20;86.10;;;;;;4938032;29;20094;-83
2021/07/25 00:43:35;;;;;;;1.00;1.00;;;22.40;85.90;;;;;;4955378;29;20036;-84
2021/07/25 00:46:01;;;;;;;1.02;1.02;;;22.50;86.00;;;;;;4955469;29;20027;-83
2021/07/25 00:48:28;;;;;;;0.90;0.90;;;22.40;86.20;;;;;;4955264;29;20035;-84
2021/07/25 00:50:55;;;;;;;1.58;1.48;;;22.40;87.10;;;;;;4955473;29;20039;-79
2021/07/25 00:53:22;;;;;;;0.90;0.90;;;22.30;87.60;;;;;;4955732;29;20502;-84
2021/07/25 00:55:48;;;;;;;2.35;1.45;;;22.40;87.50;;;;;;4955511;29;20043;-83
2021/07/25 00:58:14;;;;;;;1.45;1.35;;;22.50;87.70;;;;;;4955099;28;20047;-79
2021/07/25 01:00:44;;;;;;;0.98;0.98;;;22.50;87.90;;;;;;4955570;29;20063;-85
2021/07/25 01:03:19;;;;;;;1.40;1.30;;;22.40;88.40;;;;;;4955250;29;20071;-84
2021/07/25 01:06:13;;;;;;;1.45;1.35;;;22.40;88.60;;;;;;4955471;29;20070;-83
2021/07/25 01:08:53;;;;;;;1.58;1.48;;;22.40;88.80;;;;;;4926266;29;20067;-91
2021/07/25 01:11:22;;;;;;;1.10;1.10;;;22.30;89.40;;;;;;4954999;29;20062;-81
2021/07/25 01:13:53;;;;;;;1.23;1.13;;;22.30;89.60;;;;;;4937776;29;20070;-82
2021/07/25 01:16:20;;;;;;;1.33;1.25;;;22.40;89.60;;;;;;4955113;29;20035;-79
2021/07/25 01:18:48;;;;;;;1.50;1.40;;;22.40;89.80;;;;;;4937714;29;20035;-89
2021/07/25 01:21:15;;;;;;;1.35;1.25;;;22.30;90.00;;;;;;4954718;29;20042;-81
2021/07/25 01:23:42;;;;;;;1.17;1.10;;;22.40;90.10;;;;;;4937817;29;20043;-89
2021/07/25 01:26:10;;;;;;;1.27;1.17;;;22.20;90.40;;;;;;4954553;29;20114;-79
2021/07/25 01:28:40;;;;;;;1.15;1.10;;;22.10;90.60;;;;;;4954684;29;20038;-81
2021/07/25 01:31:18;;;;;;;1.70;1.60;;;22.20;90.80;;;;;;4954351;29;20019;-86
2021/07/25 01:33:48;;;;;;;1.30;1.20;;;22.20;90.80;;;;;;4954675;29;20032;-90
2021/07/25 01:36:14;;;;;;;1.05;1.05;;;22.20;90.80;;;;;;4954797;29;20024;-88
2021/07/25 01:38:40;;;;;;;1.20;1.10;;;22.10;91.10;;;;;;4937072;29;20395;-83
2021/07/25 01:41:09;;;;;;;1.45;1.33;;;22.00;91.40;;;;;;4954538;29;20502;-83
2021/07/25 01:43:37;;;;;;;1.10;1.10;;;22.20;91.30;;;;;;4954254;29;20031;-91
2021/07/25 01:46:04;;;;;;;1.48;1.38;;;21.20;92.60;;;;;;4954510;29;20110;-79
2021/07/25 01:48:29;;;;;;;1.08;1.05;;;21.30;93.80;;;;;;4954383;29;20058;-85
2021/07/25 01:50:55;;;;;;;1.25;1.15;;;21.50;93.30;;;;;;4937262;29;20036;-88
2021/07/25 01:53:21;;;;;;;1.70;1.60;;;21.70;93.00;;;;;;4954346;29;20035;-85
2021/07/25 01:55:47;;;;;;;1.10;1.10;;;21.70;92.80;;;;;;4936981;29;20051;-88
2021/07/25 01:58:12;;;;;;;1.40;1.30;;;21.90;92.80;;;;;;4953989;28;20134;-85
2021/07/25 02:00:38;;;;;;;1.23;1.13;;;21.80;92.90;;;;;;4954299;29;20031;-84
2021/07/25 02:03:05;;;;;;;1.08;1.08;;;21.90;92.70;;;;;;4954079;29;20039;-84
2021/07/25 02:05:31;;;;;;;1.65;1.55;;;21.90;92.90;;;;;;4954322;29;20043;-79
2021/07/25 02:07:56;;;;;;;1.05;1.02;;;22.00;92.70;;;;;;4954350;29;20027;-81
2021/07/25 02:10:22;;;;;;;1.33;1.23;;;22.00;92.60;;;;;;4953908;29;20443;-84
2021/07/25 02:12:49;;;;;;;1.30;1.20;;;21.90;92.80;;;;;;4954258;29;20063;-80
2021/07/25 02:15:15;;;;;;;1.60;1.50;;;21.80;92.80;;;;;;4954101;29;20038;-92
2021/07/25 02:17:40;;;;;;;1.55;1.45;;;21.80;93.30;;;;;;4936560;29;20047;-91
2021/07/25 02:20:07;;;;;;;1.10;1.10;;;21.80;93.60;;;;;;4952859;28;20035;-89
2021/07/25 02:22:33;;;;;;;1.20;1.10;;;21.80;93.80;;;;;;4954257;29;20031;-78
2021/07/25 02:24:59;;;;;;;1.10;1.10;;;21.80;93.90;;;;;;4953972;29;20126;-80
2021/07/25 02:27:24;;;;;;;1.50;1.40;;;21.90;94.00;;;;;;4954193;29;20046;-81
2021/07/25 02:29:50;;;;;;;1.60;1.50;;;21.70;94.10;;;;;;4953758;29;20035;-79
2021/07/25 02:32:16;;;;;;;1.58;1.48;;;21.80;94.20;;;;;;4953963;29;20039;-83
2021/07/25 02:34:42;;;;;;;1.10;1.10;;;21.70;94.80;;;;;;4952931;29;20102;-82
2021/07/25 02:37:12;;;;;;;1.30;1.20;;;21.50;95.30;;;;;;4953975;29;20094;-79
2021/07/25 02:39:38;;;;;;;1.45;1.35;;;21.50;95.60;;;;;;4954274;29;20082;-80
2021/07/25 02:42:04;;;;;;;1.40;1.30;;;21.60;95.50;;;;;;4953855;29;20447;-86
2021/07/25 02:44:30;;;;;;;1.10;1.10;;;21.50;95.80;;;;;;4953692;29;20046;-90
2021/07/25 02:46:56;;;;;;;1.27;1.17;;;21.50;96.10;;;;;;4953968;29;20032;-85
2021/07/25 02:49:22;;;;;;;1.85;1.73;;;21.40;96.50;;;;;;4953817;29;20090;-85
2021/07/25 02:51:48;;;;;;;1.00;1.00;;;21.30;96.80;;;;;;4953960;29;20166;-81
2021/07/25 02:54:14;;;;;;;1.80;1.63;;;21.30;97.00;;;;;;4953978;29;20268;-79
2021/07/25 02:56:39;;;;;;;1.52;1.42;;;21.30;97.40;;;;;;4953453;29;20400;-81
2021/07/25 02:59:05;;;;;;;2.60;1.77;;;21.30;97.30;;;;;;4953753;28;20388;-81
2021/07/25 03:01:31;;;;;;;1.00;1.00;;;21.20;97.80;;;;;;4936784;29;20114;-80
2021/07/25 03:03:57;;;;;;;1.40;1.30;;;21.10;98.00;;;;;;4953204;29;20051;-87
2021/07/25 03:06:23;;;;;;;1.67;1.58;;;21.10;98.20;;;;;;4936711;29;20038;-88
2021/07/25 03:08:49;;;;;;;1.45;1.35;;;21.00;98.10;;;;;;4936552;29;20050;-89
2021/07/25 03:11:15;;;;;;;2.65;2.25;;;20.80;98.50;;;;;;4953563;29;20050;-87
2021/07/25 03:13:40;;;;;;;1.58;1.48;;;20.80;99.10;;;;;;4953531;29;20027;-82
2021/07/25 03:16:09;;;;;;;1.55;1.45;;;20.80;99.50;;;;;;4953701;29;20372;-85
2021/07/25 03:18:35;;;;;;;1.67;1.58;;;20.80;99.20;;;;;;4952366;29;20039;-81
2021/07/25 03:21:02;;;;;;;1.92;1.83;;;20.70;99.60;;;;;;4953616;29;20118;-89
2021/07/25 03:23:29;;;;;;;1.75;1.45;;;20.80;99.80;;;;;;4953299;29;20048;-82
2021/07/25 03:25:54;;;;;;;1.73;1.63;;;20.60;99.80;;;;;;4953849;29;20035;-80
2021/07/25 03:28:22;;;;;;;1.35;1.25;;;20.50;99.90;;;;;;4936404;29;20032;-87
2021/07/25 03:30:48;;;;;;;1.58;1.48;;;20.50;99.90;;;;;;4955093;28;20405;-90
2021/07/25 03:33:14;;;;;;;1.30;1.20;;;20.60;99.90;;;;;;4955765;29;20031;-85
2021/07/25 03:35:40;;;;;;;1.67;1.58;;;20.60;99.90;;;;;;4957312;29;20043;-84
2021/07/25 03:38:06;;;;;;;1.30;1.20;;;20.50;99.90;;;;;;4956576;29;20129;-84
2021/07/25 03:40:33;;;;;;;2.35;2.15;;;20.60;99.90;;;;;;4957003;29;20119;-85
2021/07/25 03:42:59;;;;;;;1.42;1.33;;;20.70;99.90;;;;;;4956364;29;20424;-87
2021/07/25 03:45:25;;;;;;;2.08;1.92;;;20.70;99.90;;;;;;4956786;29;20031;-82
2021/07/25 03:47:51;;;;;;;1.10;1.10;;;20.60;99.90;;;;;;4957063;29;20063;-83
2021/07/25 03:50:17;;;;;;;1.60;1.35;;;20.70;99.90;;;;;;4956596;29;20039;-84
2021/07/25 03:52:43;;;;;;;1.30;1.20;;;20.60;99.90;;;;;;4956534;29;20031;-79
2021/07/25 03:55:09;;;;;;;1.30;1.20;;;20.60;99.90;;;;;;4957167;29;20039;-82
2021/07/25 03:57:35;;;;;;;1.55;1.45;;;20.60;99.90;;;;;;4938863;28;20073;-88
2021/07/25 04:00:05;;;;;;;2.20;2.00;;;20.80;99.90;;;;;;4956394;29;20031;-84
2021/07/25 04:02:31;;;;;;;1.30;1.20;;;20.60;99.90;;;;;;4939131;29;20035;-88
2021/07/25 04:04:57;;;;;;;1.60;1.50;;;20.70;99.90;;;;;;4939329;29;20038;-88
2021/07/25 04:07:23;;;;;;;1.30;1.20;;;21.00;99.90;;;;;;4956512;29;20046;-84
2021/07/25 04:09:48;;;;;;;1.58;1.48;;;21.00;99.90;;;;;;4956791;29;20514;-85
2021/07/25 04:12:14;;;;;;;1.67;1.58;;;21.00;99.90;;;;;;4956034;29;20130;-86
2021/07/25 04:14:40;;;;;;;4.30;2.13;;;20.90;99.90;;;;;;4938795;29;20039;-86
2021/07/25 04:17:06;;;;;;;1.38;1.27;;;20.80;99.90;;;;;;4956129;29;20069;-87
2021/07/25 04:19:32;;;;;;;14.25;2.88;;;20.70;99.90;;;;;;4938858;29;20130;-80
2021/07/25 04:21:58;;;;;;;1.85;1.75;;;20.60;99.90;;;;;;4938923;29;20126;-82
2021/07/25 04:24:25;;;;;;;1.42;1.33;;;20.70;99.90;;;;;;4939149;29;20035;-83
2021/07/25 04:26:52;;;;;;;1.35;1.25;;;20.80;99.90;;;;;;4956171;29;20032;-82
2021/07/25 04:29:18;;;;;;;1.10;1.10;;;20.90;99.90;;;;;;4955962;29;20027;-90
2021/07/25 04:31:44;;;;;;;1.50;1.40;;;20.70;99.90;;;;;;4938888;29;20506;-84
2021/07/25 04:34:11;;;;;;;1.30;1.20;;;20.60;99.90;;;;;;4955982;29;20035;-81
2021/07/25 04:36:37;;;;;;;1.63;1.52;;;20.60;99.90;;;;;;4938500;29;20042;-85
2021/07/25 04:39:07;;;;;;;1.40;1.30;;;20.70;99.90;;;;;;4956126;29;20070;-88
2021/07/25 04:41:42;;;;;;;1.58;1.48;;;20.60;99.90;;;;;;4954983;28;20049;-79
2021/07/25 04:44:23;;;;;;;1.23;1.13;;;20.80;99.90;;;;;;4955474;29;20452;-86
2021/07/25 04:46:52;;;;;;;1.10;1.10;;;20.80;99.90;;;;;;4938664;29;20035;-85
2021/07/25 04:49:19;;;;;;;1.45;1.35;;;20.70;99.90;;;;;;4937900;29;20031;-87
2021/07/25 04:51:46;;;;;;;1.30;1.20;;;20.60;99.90;;;;;;4955830;29;20110;-83
2021/07/25 04:54:16;;;;;;;4.65;1.80;;;21.00;99.90;;;;;;4955667;29;20451;-85
2021/07/25 04:56:57;;;;;;;1.53;1.40;;;21.10;99.90;;;;;;4938024;29;20079;-89
2021/07/25 04:59:29;;;;;;;1.40;1.30;;;21.10;99.80;;;;;;4954843;28;20130;-90
2021/07/25 05:02:03;;;;;;;2.42;1.75;;;21.10;99.80;;;;;;4955294;29;20383;-80
2021/07/25 05:04:30;;;;;;;1.17;1.10;;;21.20;99.90;;;;;;4955368;29;20039;-91
2021/07/25 05:06:56;;;;;;;1.35;1.25;;;21.30;99.90;;;;;;4938390;29;20035;-81
2021/07/25 05:09:22;;;;;;;1.00;1.00;;;21.50;99.70;;;;;;4938143;29;20039;-80
2021/07/25 05:12:29;;;;;;;1.10;1.10;;;21.40;99.30;;;;;;4955265;29;20064;-86
2021/07/25 05:15:16;;;;;;;1.58;1.48;;;21.20;99.40;;;;;;4928180;29;20031;-86
2021/07/25 05:17:45;;;;;;;1.00;1.00;;;21.20;99.50;;;;;;4937527;29;20105;-81
2021/07/25 05:20:15;;;;;;;2.03;1.63;;;21.30;99.70;;;;;;4937860;29;20038;-92
2021/07/25 05:22:47;;;;;;;1.43;1.33;;;21.20;99.60;;;;;;4955032;29;20038;-88
2021/07/25 05:25:15;;;;;;;1.00;1.00;;;21.30;99.90;;;;;;4954914;29;20754;-88
2021/07/25 05:27:44;;;;;;;2.30;1.42;;;21.40;99.60;;;;;;4937646;29;20503;-87
2021/07/25 05:30:12;;;;;;;1.02;1.02;;;21.40;99.70;;;;;;4955147;29;20038;-80
2021/07/25 05:32:38;;;;;;;1.60;1.50;;;21.50;99.90;;;;;;4955019;29;20038;-89
2021/07/25 05:35:04;;;;;;;1.10;1.10;;;21.50;99.80;;;;;;4954776;29;20036;-89
2021/07/25 05:37:30;;;;;;;1.38;1.27;;;21.50;99.40;;;;;;4954565;29;20073;-84
2021/07/25 05:39:56;;;;;;;3.05;1.77;;;21.50;99.70;;;;;;4954159;29;20387;-79
2021/07/25 05:42:21;;;;;;;1.30;1.20;;;21.50;99.50;;;;;;4954609;29;20043;-81
2021/07/25 05:44:47;;;;;;;1.75;1.65;;;21.80;99.30;;;;;;4954526;29;20121;-78
2021/07/25 05:47:13;;;;;;;1.35;1.25;;;21.90;99.10;;;;;;4954579;29;20039;-82
2021/07/25 05:49:39;;;;;;;2.08;1.67;;;21.80;98.90;;;;;;4936881;29;20031;-82
2021/07/25 05:52:05;;;;;;;2.20;1.98;;;21.70;99.00;;;;;;4954434;29;20039;-81
2021/07/25 05:54:30;;;;;;;1.50;1.40;;;21.60;99.20;;;;;;4954319;28;20093;-85
2021/07/25 05:56:56;;;;;;;1.23;1.13;;;21.40;99.60;;;;;;4954363;29;20051;-84
2021/07/25 05:59:22;;;;;;;1.00;1.00;;;21.30;99.90;;;;;;4953965;28;20031;-89
2021/07/25 06:01:47;;;;;;;15.20;2.08;;;21.30;99.90;;;;;;4954250;29;20042;-90
2021/07/25 06:04:13;;;;;;;1.70;1.60;;;21.50;99.90;;;;;;4954102;29;20368;-88
2021/07/25 06:06:39;;;;;;;1.08;1.08;;;21.30;99.90;;;;;;4953075;29;20031;-87
2021/07/25 06:09:07;;;;;;;1.08;1.00;;;21.60;99.90;;;;;;4953945;29;20121;-87
2021/07/25 06:11:34;;;;;;;1.67;1.52;;;21.90;99.30;;;;;;4936887;29;20467;-78
2021/07/25 06:13:59;;;;;;;0.90;0.90;;;22.10;99.00;;;;;;4954347;29;20027;-88
2021/07/25 06:16:25;;;;;;;1.00;1.00;;;22.40;98.80;;;;;;4954831;29;20032;-89
2021/07/25 06:18:51;;;;;;;1.42;1.33;;;22.50;99.10;;;;;;4936633;29;20035;-91
2021/07/25 06:21:18;;;;;;;1.20;1.13;;;22.60;98.60;;;;;;4954423;29;20089;-90
2021/07/25 06:23:46;;;;;;;1.60;1.23;;;22.70;98.10;;;;;;4954519;29;20039;-81
2021/07/25 06:26:12;;;;;;;1.88;1.77;;;22.80;97.60;;;;;;4954391;29;20113;-91
2021/07/25 06:28:38;;;;;;;3.10;1.73;;;22.80;97.50;;;;;;4953789;29;20058;-89
2021/07/25 06:31:04;;;;;;;1.70;1.60;;;22.80;97.40;;;;;;4954048;29;20037;-81
2021/07/25 06:33:29;;;;;;;1.35;1.20;;;22.90;97.40;;;;;;4953806;29;20055;-82
2021/07/25 06:35:56;;;;;;;1.00;1.00;;;23.10;97.50;;;;;;4954289;29;20031;-79
2021/07/25 06:38:23;;;;;;;0.98;0.98;;;23.00;97.50;;;;;;4954069;29;20106;-82
2021/07/25 06:40:53;;;;;;;2.55;1.85;;;23.00;96.80;;;;;;4953502;29;20054;-88
2021/07/25 06:43:20;;;;;;;1.70;1.60;;;23.10;97.00;;;;;;4954342;29;20475;-88
2021/07/25 06:46:11;;;;;;;1.52;1.45;;;23.20;96.20;;;;;;4953902;29;20492;-88
2021/07/25 06:49:28;;;;;;;1.95;1.75;;;23.30;95.80;;;;;;4902496;29;20035;-89
2021/07/25 06:52:43;;;;;;;1.23;0.85;;;23.20;95.90;;;;;;4875253;29;20126;-88
2021/07/25 06:55:09;;;;;;;1.65;1.38;;;23.30;96.00;;;;;;4953468;29;20046;-86
2021/07/25 06:57:35;;;;;;;1.00;1.00;;;23.40;95.70;;;;;;4936302;28;20043;-85
2021/07/25 07:00:02;;;;;;;1.33;1.23;;;23.50;95.30;;;;;;4936797;29;20036;-84
2021/07/25 07:02:28;;;;;;;0.80;0.80;;;23.70;95.20;;;;;;4954292;29;20063;-90
2021/07/25 07:04:55;;;;;;;0.93;0.93;;;23.80;94.90;;;;;;4954595;28;20070;-91
2021/07/25 07:07:21;;;;;;;1.15;1.05;;;23.90;94.80;;;;;;4941354;29;20035;-89
2021/07/25 07:09:47;;;;;;;2.15;1.15;;;23.90;94.20;;;;;;4957570;29;20079;-85
2021/07/25 07:12:12;;;;;;;0.70;0.70;;;23.80;93.60;;;;;;4958011;29;20404;-88
2021/07/25 07:14:38;;;;;;;1.50;1.40;;;23.80;93.90;;;;;;4957631;29;20066;-84
2021/07/25 07:17:04;;;;;;;1.65;1.10;;;23.90;93.80;;;;;;4957344;29;20055;-86
2021/07/25 07:19:30;;;;;;;1.05;1.05;;;24.00;94.10;;;;;;4957618;29;20035;-90
2021/07/25 07:21:55;;;;;;;1.40;1.30;;;23.90;93.90;;;;;;4957594;29;20081;-79
2021/07/25 07:24:21;;;;;;;1.30;1.20;;;23.90;93.60;;;;;;4957145;29;20110;-86
2021/07/25 07:26:47;;;;;;;0.70;0.70;;;24.00;93.30;;;;;;4957895;29;20043;-92
2021/07/25 07:29:13;;;;;;;1.00;0.90;;;24.00;93.40;;;;;;4957964;29;20387;-86
2021/07/25 07:31:38;;;;;;;0.80;0.80;;;24.20;93.40;;;;;;4940559;29;20047;-90
2021/07/25 07:34:04;;;;;;;0.93;0.93;;;24.30;93.00;;;;;;4940068;29;20090;-92
2021/07/25 07:36:30;;;;;;;1.67;1.55;;;24.40;92.80;;;;;;4940273;29;20038;-87
2021/07/25 07:38:55;;;;;;;0.85;0.85;;;24.40;92.10;;;;;;4957006;29;20072;-86
2021/07/25 07:41:21;;;;;;;0.70;0.70;;;24.50;91.60;;;;;;4957000;29;20049;-88
2021/07/25 07:43:47;;;;;;;1.85;1.70;;;24.60;91.00;;;;;;4956902;29;20054;-85
2021/07/25 07:46:12;;;;;;;2.13;1.20;;;24.70;91.40;;;;;;4957247;29;20043;-88
2021/07/25 07:48:38;;;;;;;0.95;0.95;;;24.70;91.40;;;;;;4957033;29;20031;-86
2021/07/25 07:51:04;;;;;;;0.70;0.70;;;24.80;91.50;;;;;;4956861;29;20114;-88
2021/07/25 07:53:29;;;;;;;0.95;0.95;;;24.90;91.60;;;;;;4956783;29;20035;-88
2021/07/25 07:55:55;;;;;;;1.70;1.60;;;25.00;91.60;;;;;;4956727;29;20027;-86
2021/07/25 07:58:21;;;;;;;0.90;0.90;;;25.00;90.10;;;;;;4955771;28;20055;-91
2021/07/25 08:00:48;;;;;;;0.70;0.70;;;25.00;90.10;;;;;;4955583;29;20050;-90
2021/07/25 08:03:14;;;;;;;0.75;0.75;;;25.00;90.20;;;;;;4955803;29;20031;-92
2021/07/25 08:05:40;;;;;;;0.82;0.82;;;25.20;89.90;;;;;;4955861;29;20051;-89
2021/07/25 08:08:06;;;;;;;1.27;1.17;;;25.20;89.90;;;;;;4955226;29;20315;-88
2021/07/25 08:10:31;;;;;;;0.70;0.70;;;25.20;90.30;;;;;;4956055;29;20027;-88
2021/07/25 08:13:17;;;;;;;0.73;0.73;;;25.30;89.90;;;;;;4955724;29;20043;-84
2021/07/25 08:15:43;;;;;;;1.20;1.10;;;25.50;90.00;;;;;;4955109;29;20107;-84
2021/07/25 08:18:09;;;;;;;0.88;0.88;;;25.60;88.50;;;;;;4954439;28;20504;-84
2021/07/25 08:20:35;;;;;;;0.80;0.80;;;25.50;87.50;;;;;;4955317;29;20051;-87
2021/07/25 08:23:00;;;;;;;1.05;0.98;;;25.50;86.50;;;;;;4955108;29;20042;-90
2021/07/25 08:25:26;;;;;;;1.05;1.02;;;25.50;87.60;;;;;;4937523;29;20122;-85
2021/07/25 08:27:52;;;;;;;0.90;0.90;;;25.80;87.80;;;;;;4955435;29;20035;-89
2021/07/25 08:30:17;;;;;;;0.93;0.90;;;25.90;87.20;;;;;;4955085;29;20031;-88
2021/07/25 08:32:43;;;;;;;0.60;0.60;;;26.10;86.70;;;;;;4955390;29;20427;-88
2021/07/25 08:35:09;;;;;;;1.10;0.98;;;26.20;87.00;;;;;;4954947;29;20388;-90
2021/07/25 08:37:35;;;;;;;1.00;1.00;;;26.20;85.70;;;;;;4954928;29;20510;-89
2021/07/25 08:40:01;;;;;;;0.90;0.90;;;26.20;85.80;;;;;;4954719;29;20027;-84
2021/07/25 08:42:33;;;;;;;1.33;1.10;;;26.30;85.20;;;;;;4955005;29;20039;-85
2021/07/25 08:44:59;;;;;;;0.90;0.88;;;26.40;85.40;;;;;;4954870;29;20039;-79
2021/07/25 08:47:33;;;;;;;2.08;0.90;;;26.40;84.20;;;;;;4955159;29;20067;-83
2021/07/25 08:50:15;;;;;;;0.85;0.82;;;26.50;84.30;;;;;;4954854;29;20042;-85
2021/07/25 08:52:51;;;;;;;0.98;0.95;;;26.60;83.60;;;;;;4954514;29;20068;-90
2021/07/25 08:55:24;;;;;;;1.00;0.98;;;26.70;82.10;;;;;;4954590;29;20035;-89
2021/07/25 08:57:51;;;;;;;0.40;0.40;;;26.70;81.70;;;;;;4892987;29;1313040;-84
2021/07/25 09:00:19;;;;;;;2.65;1.23;;;26.80;81.30;;;;;;4955214;29;20443;-80
2021/07/25 09:02:45;;;;;;;1.23;1.05;;;27.00;80.80;;;;;;4955438;29;20054;-85
2021/07/25 09:05:12;;;;;;;0.80;0.80;;;27.10;80.00;;;;;;4955318;29;20035;-85
2021/07/25 09:07:42;;;;;;;1.33;1.05;;;26.90;78.70;;;;;;4955449;29;20035;-89
2021/07/25 09:10:09;;;;;;;;;;;27.00;77.90;;;;;;4938702;29;20114;-81
2021/07/25 09:12:36;;;;;;;0.68;0.68;;;27.20;77.10;;;;;;4955532;29;19910;-89
2021/07/25 09:15:07;;;;;;;0.93;0.85;;;27.30;76.80;;;;;;4955362;29;20023;-88
2021/07/25 09:17:33;;;;;;;1.02;0.93;;;27.40;75.90;;;;;;4937917;29;20055;-83
2021/07/25 09:20:26;;;;;;;1.52;1.38;;;27.50;74.90;;;;;;4955075;29;20027;-80
2021/07/25 09:22:55;;;;;;;1.08;1.00;;;28.00;74.90;;;;;;4954791;29;20046;-92
2021/07/25 09:25:20;;;;;;;0.55;0.55;;;28.00;73.30;;;;;;4937708;29;20499;-88
2021/07/25 09:28:06;;;;;;;0.68;0.68;;;28.20;73.50;;;;;;4937340;29;20042;-84
2021/07/25 09:30:33;;;;;;;0.73;0.73;;;28.40;72.90;;;;;;4938136;29;20123;-89
2021/07/25 09:33:00;;;;;;;0.60;0.60;;;28.50;72.20;;;;;;4937718;29;20566;-86
2021/07/25 09:35:31;;;;;;;0.82;0.70;;;28.50;72.20;;;;;;4937253;29;20062;-81
2021/07/25 09:38:03;;;;;;;1.92;1.70;;;28.50;70.80;;;;;;4954834;29;20081;-86
2021/07/25 09:40:32;;;;;;;0.50;0.50;;;28.50;71.40;;;;;;4954645;29;20031;-90
2021/07/25 09:43:24;;;;;;;0.43;0.43;;;28.80;70.60;;;;;;4954638;29;20033;-91
2021/07/25 09:45:57;;;;;;;0.73;0.70;;;29.10;69.40;;;;;;4937677;29;20043;-91
2021/07/25 09:48:26;;;;;;;1.10;0.95;;;29.30;69.10;;;;;;4954797;29;20435;-87
2021/07/25 09:50:56;;;;;;;1.65;0.95;;;29.20;68.60;;;;;;4954952;29;20459;-91
2021/07/25 09:53:22;;;;;;;;;;;29.40;68.50;;;;;;4954470;29;20392;-92
2021/07/25 09:55:49;;;;;;;1.52;1.30;;;29.50;66.90;;;;;;4954620;29;20367;-92
2021/07/25 09:58:15;;;;;;;1.73;1.27;;;29.70;67.00;;;;;;4954487;28;20050;-86
2021/07/25 10:00:46;;;;;;;0.80;0.80;;;30.00;66.40;;;;;;4954769;29;20063;-88
2021/07/25 10:03:18;;;;;;;0.95;0.80;;;30.20;65.40;;;;;;4937157;29;20053;-87
2021/07/25 10:05:47;;;;;;;0.93;0.68;;;30.20;64.70;;;;;;4954833;29;20086;-91
2021/07/25 10:08:17;;;;;;;1.47;0.97;;;30.40;64.20;;;;;;4954542;29;20135;-86
2021/07/25 10:10:51;;;;;;;2.10;1.20;;;30.60;64.80;;;;;;4954973;29;20253;-88
2021/07/25 10:13:25;;;;;;;0.90;0.70;;;30.90;63.50;;;;;;4954491;29;20047;-82
2021/07/25 10:15:59;;;;;;;0.93;0.75;;;30.90;63.20;;;;;;4954884;29;20388;-91
2021/07/25 10:18:26;;;;;;;1.13;0.82;;;31.00;62.70;;;;;;4937436;29;20058;-89
2021/07/25 10:21:00;;;;;;;1.55;1.08;;;31.00;62.00;;;;;;4938024;29;20049;-90
2021/07/25 10:23:47;;;;;;;0.65;0.63;;;30.80;60.60;;;;;;4954496;29;20162;-91
2021/07/25 10:26:14;;;;;;;1.10;0.73;;;31.10;60.30;;;;;;4954899;29;20062;-88
2021/07/25 10:28:41;;;;;;;0.73;0.73;;;31.40;60.40;;;;;;4955077;29;20046;-85
2021/07/25 10:31:08;;;;;;;1.60;0.90;;;31.60;59.80;;;;;;4955254;29;20031;-86
2021/07/25 10:33:38;;;;;;;1.55;0.70;;;31.60;59.30;;;;;;4955023;29;20423;-91
2021/07/25 10:36:04;;;;;;;;;;;31.50;59.70;;;;;;4955804;29;20062;-91
2021/07/25 10:38:30;;;;;;;0.73;0.70;;;31.40;57.80;;;;;;4955595;29;20024;-93
2021/07/25 10:40:57;;;;;;;0.98;0.68;;;30.90;55.80;;;;;;4958248;28;20112;-91
2021/07/25 10:43:26;;;;;;;0.65;0.63;;;31.00;55.60;;;;;;4959196;29;20042;-82
2021/07/25 10:46:13;;;;;;;0.90;0.85;;;31.40;55.20;;;;;;4959481;29;20032;-90
2021/07/25 10:48:59;;;;;;;1.75;1.20;;;31.70;54.60;;;;;;4960071;29;20035;-88
2021/07/25 10:51:29;;;;;;;1.42;1.00;;;31.90;53.70;;;;;;4958548;29;20318;-86
2021/07/25 10:54:33;;;;;;;0.90;0.52;;;31.90;52.60;;;;;;4958481;29;20035;-89
2021/07/25 10:57:11;;;;;;;0.30;0.30;;;31.90;51.60;;;;;;4921921;29;20186;-90
2021/07/25 10:59:41;;;;;;;0.75;0.60;;;32.20;52.40;;;;;;4940765;29;20035;-92
2021/07/25 11:02:33;;;;;;;0.40;0.40;;;32.10;50.90;;;;;;4942317;29;20098;-91
2021/07/25 11:04:58;;;;;;;1.17;0.80;;;32.30;50.80;;;;;;4941191;29;20031;-89
2021/07/25 11:07:24;;;;;;;2.05;0.88;;;32.50;50.90;;;;;;4957540;29;20086;-93
2021/07/25 11:10:13;;;;;;;0.82;0.57;;;32.60;50.90;;;;;;4957457;29;20455;-89
2021/07/25 11:12:48;;;;;;;0.38;0.38;;;32.30;52.30;;;;;;4940953;29;20047;-88
2021/07/25 11:15:35;;;;;;;1.67;1.25;;;32.30;52.60;;;;;;4958092;29;20050;-89
2021/07/25 11:18:01;;;;;;;1.92;1.02;;;32.40;51.60;;;;;;4958003;29;20039;-88
2021/07/25 11:20:58;;;;;;;0.52;0.52;;;32.50;51.00;;;;;;4940852;29;20035;-92
2021/07/25 11:23:24;;;;;;;0.57;0.57;;;32.30;51.20;;;;;;4957763;29;20043;-89
2021/07/25 11:25:52;;;;;;;0.50;0.47;;;32.50;51.20;;;;;;4940999;29;20175;-94
2021/07/25 11:28:43;;;;;;;1.70;1.13;;;32.90;51.80;;;;;;4957454;29;20285;-92
2021/07/25 11:31:13;;;;;;;1.85;0.75;;;32.60;51.10;;;;;;4957577;29;20118;-93
2021/07/25 11:33:51;;;;;;;1.02;0.70;;;32.70;51.00;;;;;;4957937;29;20028;-94
2021/07/25 11:36:19;;;;;;;0.80;0.75;;;32.90;51.10;;;;;;4957206;29;20126;-89
2021/07/25 11:38:53;;;;;;;0.85;0.70;;;32.90;51.40;;;;;;4957136;29;20067;-93
2021/07/25 11:41:23;;;;;;;0.30;0.30;;;33.30;52.10;;;;;;4958194;29;20039;-91
2021/07/25 11:43:58;;;;;;;0.60;0.60;;;33.70;51.60;;;;;;4958003;29;20039;-90
2021/07/25 11:46:47;;;;;;;0.35;0.35;;;33.60;51.10;;;;;;4960426;29;20119;-92
2021/07/25 11:49:18;;;;;;;0.20;0.20;;;33.40;51.10;;;;;;4958239;29;20039;-85
2021/07/25 11:52:07;;;;;;;0.68;0.63;;;33.70;50.50;;;;;;4957819;28;20027;-91
2021/07/25 11:54:40;;;;;;;0.67;0.63;;;34.00;50.30;;;;;;4959211;29;20046;-95
2021/07/25 11:57:20;;;;;;;0.65;0.63;;;33.80;49.80;;;;;;4961428;29;20047;-93
2021/07/25 11:59:51;;;;;;;0.40;0.40;;;34.00;49.90;;;;;;4962339;29;20389;-90
2021/07/25 12:02:31;;;;;;;0.75;0.75;;;34.30;49.90;;;;;;4945488;29;20037;-94
2021/07/25 12:04:58;;;;;;;0.30;0.30;;;34.20;49.90;;;;;;4959484;29;20479;-88
2021/07/25 12:07:32;;;;;;;0.43;0.43;;;33.80;50.00;;;;;;4958776;29;20383;-91
2021/07/25 12:09:58;;;;;;;0.40;0.40;;;34.20;49.80;;;;;;4942513;29;20424;-94
2021/07/25 12:12:24;;;;;;;1.15;0.85;;;34.10;49.70;;;;;;4960960;29;20509;-92
2021/07/25 12:15:01;;;;;;;1.58;0.88;;;34.30;49.90;;;;;;4942476;29;20039;-88
2021/07/25 12:17:39;;;;;;;1.35;1.25;;;34.50;50.00;;;;;;4960031;29;20039;-95
2021/07/25 12:20:16;;;;;;;2.15;0.63;;;34.80;50.10;;;;;;4960820;29;20035;-92
2021/07/25 12:22:51;;;;;;;1.85;0.73;;;34.60;47.10;;;;;;4959295;29;20031;-94
2021/07/25 12:25:18;;;;;;;0.57;0.50;;;34.70;46.30;;;;;;4961326;29;20039;-84
2021/07/25 12:27:44;;;;;;;2.83;0.77;;;34.20;46.00;;;;;;4959510;29;20039;-95
2021/07/25 12:30:18;;;;;;;0.60;0.60;;;34.40;46.40;;;;;;4940637;29;20047;-82
2021/07/25 12:32:47;;;;;;;0.20;0.20;;;34.70;45.90;;;;;;4958813;29;20032;-92
2021/07/25 12:35:14;;;;;;;0.73;0.50;;;34.20;44.70;;;;;;4940312;29;20063;-93
2021/07/25 12:37:45;;;;;;;2.42;1.55;;;34.70;45.70;;;;;;4958060;29;20039;-94
2021/07/25 12:40:16;;;;;;;1.80;1.05;;;34.80;46.20;;;;;;4958066;29;20030;-90
2021/07/25 12:42:50;;;;;;;1.05;0.90;;;35.00;46.10;;;;;;4964409;29;20045;-94
2021/07/25 12:45:38;;;;;;;0.43;0.43;;;34.60;44.40;;;;;;4960931;29;20118;-94
2021/07/25 12:48:26;;;;;;;3.10;0.82;;;34.30;43.70;;;;;;4961039;29;20035;-87
2021/07/25 12:53:56;;;;;;;3.67;2.03;;;34.50;41.50;;;;;;4960410;29;20031;-94
2021/07/25 12:56:22;;;;;;;0.40;0.40;;;34.40;42.70;;;;;;4961707;29;20130;-89
2021/07/25 12:58:51;;;;;;;1.27;0.57;;;34.80;43.10;;;;;;4959532;28;20078;-91
2021/07/25 13:04:01;;;;;;;0.30;0.30;;;34.70;44.80;;;;;;4956686;28;20407;-89
2021/07/25 13:06:29;;;;;;;0.77;0.77;;;34.60;44.20;;;;;;4959515;29;20490;-87